Time;durP1;ratioP1;P1;durP2;ratioP2;P2;SDS_P1;SDS_P2;PMS_P1;PMS_P2;Temp;Humidity;BMP_temperature;BMP_pressure;BME280_temperature;BME280_humidity;BME280_pressure;Samples;Min_cycle;Max_cycle;Signal;HPM_P1;HPM_P2
2023/12/31 00:00:26;;;;;;;5.90;3.03;;;;;;;7.00;91.55;100190.09;4974821;28;20212;-81
2023/12/31 00:02:52;;;;;;;7.30;2.40;;;;;;;7.02;90.89;100182.91;4975951;28;20903;-80
2023/12/31 00:05:25;;;;;;;4.57;1.90;;;;;;;7.04;90.79;100182.84;4967454;28;20263;-79
2023/12/31 00:07:52;;;;;;;6.03;2.53;;;;;;;7.04;91.36;100175.75;4972284;28;20327;-79
2023/12/31 00:10:18;;;;;;;6.60;2.63;;;;;;;7.06;90.82;100162.41;4971425;28;20214;-81
2023/12/31 00:12:45;;;;;;;3.83;1.60;;;;;;;7.04;91.06;100161.66;4969231;28;20204;-81
2023/12/31 00:15:11;;;;;;;2.40;1.30;;;;;;;7.10;90.73;100151.56;4969582;28;20237;-80
2023/12/31 00:17:39;;;;;;;6.57;1.50;;;;;;;7.09;90.55;100149.00;4972048;28;20228;-80
2023/12/31 00:20:07;;;;;;;3.20;1.40;;;;;;;7.11;90.66;100150.63;4972211;28;20578;-81
2023/12/31 00:22:34;;;;;;;3.47;1.47;;;;;;;7.07;90.58;100145.59;4966112;28;20208;-79
2023/12/31 00:25:01;;;;;;;5.90;1.53;;;;;;;7.10;90.57;100132.19;4971416;28;20224;-82
2023/12/31 00:27:27;;;;;;;2.27;1.63;;;;;;;7.14;91.35;100120.47;4974624;28;20211;-80
2023/12/31 00:29:55;;;;;;;4.30;0.80;;;;;;;7.15;91.06;100122.19;4980492;28;20318;-81
2023/12/31 00:32:26;;;;;;;1.50;0.83;;;;;;;7.16;90.70;100115.94;4975634;28;20236;-82
2023/12/31 00:34:54;;;;;;;3.43;1.10;;;;;;;7.14;90.77;100118.69;4976975;28;20236;-78
2023/12/31 00:37:21;;;;;;;3.00;1.00;;;;;;;7.16;91.23;100106.22;4977383;28;20723;-80
2023/12/31 00:39:48;;;;;;;4.53;1.37;;;;;;;7.19;91.15;100106.00;4969959;28;20207;-77
2023/12/31 00:42:14;;;;;;;3.47;1.00;;;;;;;7.19;91.37;100100.72;4972964;28;20208;-80
2023/12/31 00:44:41;;;;;;;2.00;1.00;;;;;;;7.18;90.84;100096.34;4969024;28;20239;-80
2023/12/31 00:47:07;;;;;;;3.03;1.43;;;;;;;7.19;91.68;100089.25;4973229;28;20208;-79
2023/12/31 00:49:33;;;;;;;4.40;1.20;;;;;;;7.20;91.30;100088.31;4973330;28;20200;-80
2023/12/31 00:52:01;;;;;;;2.63;1.00;;;;;;;7.20;91.36;100085.69;4974652;28;20219;-79
2023/12/31 00:54:28;;;;;;;1.87;1.10;;;;;;;7.22;91.19;100091.75;4973892;28;20775;-79
2023/12/31 00:56:54;;;;;;;2.63;1.13;;;;;;;7.17;91.07;100086.72;4973109;28;20224;-80
2023/12/31 00:59:21;;;;;;;3.70;1.23;;;;;;;7.14;91.58;100080.75;4972046;28;20300;-80
2023/12/31 01:01:53;;;;;;;4.03;1.30;;;;;;;7.07;91.05;100080.25;4973578;28;20207;-80
2023/12/31 01:04:21;;;;;;;3.93;1.07;;;;;;;7.04;91.46;100079.56;4969417;28;20597;-79
2023/12/31 01:06:47;;;;;;;3.10;1.10;;;;;;;6.96;91.55;100086.19;4965975;28;20219;-80
2023/12/31 01:09:15;;;;;;;5.07;1.23;;;;;;;6.89;91.43;100078.66;4970979;28;20220;-80
2023/12/31 01:11:42;;;;;;;2.43;1.33;;;;;;;6.84;92.16;100078.91;4973991;28;20298;-81
2023/12/31 01:14:08;;;;;;;3.20;1.30;;;;;;;6.79;91.67;100077.50;4971353;28;20235;-81
2023/12/31 01:16:35;;;;;;;2.47;1.07;;;;;;;6.75;92.83;100081.25;4981583;28;20228;-81
2023/12/31 01:19:01;;;;;;;4.53;1.40;;;;;;;6.70;92.89;100084.16;4969009;28;20208;-77
2023/12/31 01:21:28;;;;;;;4.97;1.70;;;;;;;6.66;92.42;100087.03;4970605;28;20894;-79
2023/12/31 01:23:54;;;;;;;3.57;1.23;;;;;;;6.61;92.60;100077.59;4974809;28;20231;-79
2023/12/31 01:26:22;;;;;;;2.47;1.30;;;;;;;6.66;92.77;100074.66;4974836;28;20661;-78
2023/12/31 01:28:49;;;;;;;2.87;1.20;;;;;;;6.64;93.64;100071.25;4973001;28;20209;-80
2023/12/31 01:31:19;;;;;;;4.50;1.30;;;;;;;6.60;93.36;100065.31;4968667;28;20213;-80
2023/12/31 01:33:45;;;;;;;2.57;1.00;;;;;;;6.59;94.01;100068.88;4973111;28;20216;-81
2023/12/31 01:36:14;;;;;;;3.73;1.33;;;;;;;6.58;93.43;100066.31;4977409;28;20247;-79
2023/12/31 01:38:43;;;;;;;3.03;0.90;;;;;;;6.55;93.83;100067.34;4973773;28;20744;-80
2023/12/31 01:41:12;;;;;;;2.73;1.30;;;;;;;6.53;93.61;100056.00;4966932;28;20213;-80
2023/12/31 01:43:40;;;;;;;4.47;1.33;;;;;;;6.53;94.18;100056.00;4964628;28;20220;-79
2023/12/31 01:46:09;;;;;;;3.03;1.30;;;;;;;6.56;94.28;100045.25;4969155;28;20228;-81
2023/12/31 01:48:36;;;;;;;1.53;1.00;;;;;;;6.50;94.10;100042.94;4971687;28;20219;-80
2023/12/31 01:51:03;;;;;;;1.93;1.10;;;;;;;6.48;94.58;100038.66;4964540;28;20288;-81
2023/12/31 01:53:30;;;;;;;5.70;1.90;;;;;;;6.42;93.96;100049.59;4964137;28;20208;-78
2023/12/31 01:55:59;;;;;;;4.57;1.47;;;;;;;6.40;94.56;100046.19;4969483;28;20235;-81
2023/12/31 01:58:26;;;;;;;1.93;1.10;;;;;;;6.35;94.27;100041.16;4970819;28;20218;-80
2023/12/31 02:00:54;;;;;;;5.07;1.67;;;;;;;6.32;95.34;100038.66;4976897;28;20278;-80
2023/12/31 02:03:24;;;;;;;4.37;1.23;;;;;;;6.29;94.63;100036.19;4970213;28;20208;-80
2023/12/31 02:05:51;;;;;;;3.73;1.10;;;;;;;6.24;94.64;100036.47;4969160;28;20229;-81
2023/12/31 02:08:17;;;;;;;1.97;1.23;;;;;;;6.20;95.34;100034.91;4965158;28;20208;-82
2023/12/31 02:10:44;;;;;;;2.57;1.73;;;;;;;6.16;94.94;100033.38;4977122;28;20203;-80
2023/12/31 02:13:11;;;;;;;5.40;1.90;;;;;;;6.13;95.32;100035.31;4968090;28;20216;-81
2023/12/31 02:15:39;;;;;;;5.13;2.00;;;;;;;6.09;95.48;100032.00;4965541;28;20240;-82
2023/12/31 02:18:07;;;;;;;5.43;2.47;;;;;;;6.05;96.12;100030.47;4969942;28;20608;-81
2023/12/31 02:20:33;;;;;;;3.80;2.30;;;;;;;6.02;96.22;100035.94;4971270;28;20223;-81
2023/12/31 02:23:00;;;;;;;2.10;1.30;;;;;;;5.99;96.39;100027.31;4975038;28;20205;-81
2023/12/31 02:25:29;;;;;;;3.07;1.80;;;;;;;5.96;96.47;100022.19;4969458;28;20243;-77
2023/12/31 02:27:57;;;;;;;3.80;1.60;;;;;;;5.91;96.83;100030.38;4968274;28;20209;-80
2023/12/31 02:30:25;;;;;;;5.97;2.00;;;;;;;5.90;97.85;100023.38;4966387;28;20722;-81
2023/12/31 02:32:51;;;;;;;7.37;1.80;;;;;;;5.91;98.29;100017.16;4976942;28;20223;-80
2023/12/31 02:35:18;;;;;;;4.17;1.50;;;;;;;5.92;98.58;100018.84;4971733;28;20231;-80
2023/12/31 02:37:44;;;;;;;4.27;1.43;;;;;;;5.93;99.53;100012.63;4976818;28;20231;-80
2023/12/31 02:40:11;;;;;;;1.60;1.23;;;;;;;5.98;99.83;100013.22;4969763;28;20218;-82
2023/12/31 02:42:38;;;;;;;1.87;1.13;;;;;;;5.99;100.00;99996.44;4966826;28;20205;-81
2023/12/31 02:45:07;;;;;;;3.07;1.50;;;;;;;6.01;100.00;99991.94;4972033;28;20224;-81
2023/12/31 02:47:33;;;;;;;2.93;1.20;;;;;;;6.04;100.00;99986.47;4970417;28;20207;-82
2023/12/31 02:49:59;;;;;;;2.97;1.33;;;;;;;6.10;100.00;99980.81;4971232;28;20212;-81
2023/12/31 02:52:26;;;;;;;2.93;1.57;;;;;;;6.13;100.00;99980.66;4963677;28;20742;-84
2023/12/31 02:55:09;;;;;;;5.17;1.50;;;;;;;6.17;100.00;99974.28;4976538;28;20231;-83
2023/12/31 02:57:35;;;;;;;3.13;1.40;;;;;;;6.22;100.00;99960.81;4965891;28;20391;-84
2023/12/31 03:00:04;;;;;;;3.37;1.33;;;;;;;6.23;100.00;99952.78;4975018;28;20211;-84
2023/12/31 03:02:31;;;;;;;2.23;1.07;;;;;;;6.24;100.00;99941.28;4964409;28;20802;-84
2023/12/31 03:05:00;;;;;;;2.67;1.30;;;;;;;6.27;100.00;99945.50;4970451;28;20791;-84
2023/12/31 03:07:28;;;;;;;3.20;1.07;;;;;;;6.27;100.00;99940.22;4974388;28;20207;-84
2023/12/31 03:09:56;;;;;;;2.07;1.10;;;;;;;6.29;100.00;99938.34;4974216;28;20211;-84
2023/12/31 03:12:25;;;;;;;2.43;1.20;;;;;;;6.31;100.00;99935.63;4970718;28;20208;-84
2023/12/31 03:14:55;;;;;;;2.90;1.20;;;;;;;6.33;100.00;99934.59;4974146;28;20418;-84
2023/12/31 03:17:21;;;;;;;2.03;1.00;;;;;;;6.38;100.00;99929.91;4968237;28;20238;-84
2023/12/31 03:19:52;;;;;;;3.23;1.40;;;;;;;6.35;100.00;99924.78;4971973;28;20224;-84
2023/12/31 03:22:18;;;;;;;2.20;1.50;;;;;;;6.33;100.00;99931.94;4959718;28;20223;-84
2023/12/31 03:24:46;;;;;;;2.00;1.20;;;;;;;6.34;100.00;99932.81;4978205;28;20224;-85
2023/12/31 03:27:15;;;;;;;1.63;1.10;;;;;;;6.33;100.00;99926.66;4983748;28;20211;-85
2023/12/31 03:29:43;;;;;;;2.50;1.37;;;;;;;6.33;100.00;99918.72;4972255;28;20218;-85
2023/12/31 03:32:11;;;;;;;3.70;1.10;;;;;;;6.31;100.00;99919.75;4968083;28;20598;-85
2023/12/31 03:34:39;;;;;;;3.77;1.13;;;;;;;6.27;100.00;99906.69;4964938;28;20323;-85
2023/12/31 03:37:10;;;;;;;4.30;1.10;;;;;;;6.26;100.00;99906.81;4970346;28;20627;-84
2023/12/31 03:39:40;;;;;;;2.03;1.30;;;;;;;6.22;100.00;99908.78;4968380;28;20205;-84
2023/12/31 03:42:07;;;;;;;3.83;1.27;;;;;;;6.22;100.00;99900.00;4965308;28;20350;-85
2023/12/31 03:44:35;;;;;;;2.27;1.50;;;;;;;6.24;100.00;99898.97;4968588;28;20232;-85
2023/12/31 03:47:04;;;;;;;3.37;1.70;;;;;;;6.26;100.00;99883.00;4967583;28;20219;-83
2023/12/31 03:49:32;;;;;;;5.60;1.30;;;;;;;6.29;100.00;99888.09;4971394;28;20216;-84
2023/12/31 03:52:00;;;;;;;4.27;1.20;;;;;;;6.35;100.00;99881.63;4972554;28;20234;-84
2023/12/31 03:54:30;;;;;;;2.60;1.10;;;;;;;6.36;100.00;99876.25;4972190;28;20228;-84
2023/12/31 03:56:58;;;;;;;5.90;1.90;;;;;;;6.39;100.00;99872.56;4970846;28;20204;-84
2023/12/31 03:59:26;;;;;;;2.03;1.47;;;;;;;6.36;100.00;99865.66;4977609;28;20216;-84
2023/12/31 04:01:56;;;;;;;1.80;1.03;;;;;;;6.36;100.00;99864.81;4975229;28;20225;-84
2023/12/31 04:04:24;;;;;;;2.30;1.43;;;;;;;6.36;100.00;99862.16;4976894;28;20713;-85
2023/12/31 04:06:51;;;;;;;1.67;1.10;;;;;;;6.36;100.00;99849.78;4972937;28;20204;-86
2023/12/31 04:09:20;;;;;;;2.70;1.50;;;;;;;6.39;100.00;99844.31;4980656;28;20208;-84
2023/12/31 04:11:47;;;;;;;2.33;1.10;;;;;;;6.39;100.00;99836.38;4976708;28;20216;-85
2023/12/31 04:14:16;;;;;;;2.17;1.10;;;;;;;6.39;100.00;99831.09;4971668;28;20588;-84
2023/12/31 04:16:58;;;;;;;3.90;1.40;;;;;;;6.37;100.00;99825.06;4973228;28;20212;-84
2023/12/31 04:19:26;;;;;;;2.37;1.20;;;;;;;6.34;100.00;99819.94;4975203;28;20295;-85
2023/12/31 04:21:53;;;;;;;3.17;1.30;;;;;;;6.33;100.00;99812.94;4975167;28;20236;-84
2023/12/31 04:24:22;;;;;;;3.50;1.33;;;;;;;6.31;100.00;99808.69;4966808;28;20232;-84
2023/12/31 04:26:52;;;;;;;1.43;1.00;;;;;;;6.28;100.00;99802.63;4978938;28;20205;-84
2023/12/31 04:29:21;;;;;;;3.57;1.37;;;;;;;6.33;100.00;99796.22;4976208;28;20291;-84
2023/12/31 04:31:50;;;;;;;1.53;0.97;;;;;;;6.30;100.00;99789.31;4970664;28;20665;-84
2023/12/31 04:34:19;;;;;;;1.77;1.00;;;;;;;6.29;100.00;99774.41;4966295;28;20236;-84
2023/12/31 04:36:48;;;;;;;2.20;1.10;;;;;;;6.30;100.00;99778.75;4969491;28;20204;-85
2023/12/31 04:39:15;;;;;;;1.60;1.23;;;;;;;6.31;100.00;99775.16;4973555;28;20303;-84
2023/12/31 04:41:42;;;;;;;3.47;1.10;;;;;;;6.32;100.00;99768.94;4964237;28;20724;-84
2023/12/31 04:44:12;;;;;;;2.83;1.30;;;;;;;6.41;100.00;99772.81;4974647;28;20220;-85
2023/12/31 04:46:38;;;;;;;2.13;1.10;;;;;;;6.46;100.00;99768.09;4974497;28;20204;-85
2023/12/31 04:49:05;;;;;;;1.80;1.10;;;;;;;6.50;100.00;99772.25;4966499;28;20200;-85
2023/12/31 04:51:33;;;;;;;1.80;1.10;;;;;;;6.54;100.00;99771.13;4974301;28;20223;-84
2023/12/31 04:54:02;;;;;;;1.90;0.90;;;;;;;6.59;100.00;99764.63;4965165;28;20312;-85
2023/12/31 04:56:28;;;;;;;2.30;1.33;;;;;;;6.61;100.00;99759.25;4966633;28;20213;-85
2023/12/31 04:58:56;;;;;;;1.80;1.30;;;;;;;6.60;100.00;99765.47;4975738;28;20319;-85
2023/12/31 05:01:26;;;;;;;4.17;1.20;;;;;;;6.61;100.00;99768.03;4977791;28;20206;-85
2023/12/31 05:03:52;;;;;;;1.97;0.90;;;;;;;6.60;100.00;99770.78;4980909;28;20257;-84
2023/12/31 05:06:19;;;;;;;1.10;0.90;;;;;;;6.58;100.00;99759.44;4979580;28;20205;-84
2023/12/31 05:08:49;;;;;;;1.57;1.10;;;;;;;6.56;100.00;99758.66;4980108;28;20563;-84
2023/12/31 05:11:15;;;;;;;2.20;0.83;;;;;;;6.57;100.00;99760.38;4979944;28;20239;-85
2023/12/31 05:13:42;;;;;;;2.07;0.90;;;;;;;6.55;100.00;99756.97;4972395;28;20213;-85
2023/12/31 05:16:10;;;;;;;3.53;1.03;;;;;;;6.60;100.00;99754.91;4971676;28;20239;-84
2023/12/31 05:18:41;;;;;;;3.03;0.97;;;;;;;6.63;100.00;99744.97;4971729;28;20907;-84
2023/12/31 05:21:07;;;;;;;1.57;0.90;;;;;;;6.70;100.00;99741.94;4971438;28;20254;-84
2023/12/31 05:23:33;;;;;;;2.80;0.90;;;;;;;6.74;100.00;99738.16;4974150;28;20208;-85
2023/12/31 05:26:01;;;;;;;1.43;1.00;;;;;;;6.74;100.00;99728.44;4973990;28;20226;-85
2023/12/31 05:28:28;;;;;;;2.20;0.87;;;;;;;6.76;100.00;99734.47;4971039;28;20298;-84
2023/12/31 05:30:54;;;;;;;1.83;1.00;;;;;;;6.75;100.00;99731.94;4976476;28;20230;-85
2023/12/31 05:33:21;;;;;;;1.00;0.70;;;;;;;6.73;100.00;99721.44;4965478;28;20205;-83
2023/12/31 05:35:50;;;;;;;1.43;1.00;;;;;;;6.73;100.00;99715.28;4973300;28;20702;-84
2023/12/31 05:38:32;;;;;;;2.87;1.00;;;;;;;6.71;100.00;99710.09;4972272;28;20228;-84
2023/12/31 05:40:58;;;;;;;2.77;0.90;;;;;;;6.72;100.00;99708.31;4965738;28;20201;-85
2023/12/31 05:43:29;;;;;;;4.10;1.03;;;;;;;6.75;100.00;99701.03;4971123;28;20208;-83
2023/12/31 05:45:55;;;;;;;1.23;0.70;;;;;;;6.75;100.00;99693.09;4972571;28;20236;-84
2023/12/31 05:48:22;;;;;;;2.00;0.63;;;;;;;6.74;100.00;99686.09;4969024;28;20219;-84
2023/12/31 05:50:51;;;;;;;2.73;0.90;;;;;;;6.79;100.00;99688.47;4975611;28;20200;-84
2023/12/31 05:53:20;;;;;;;1.60;0.87;;;;;;;6.81;100.00;99686.53;4966991;28;20208;-84
2023/12/31 05:55:48;;;;;;;2.20;0.73;;;;;;;6.83;100.00;99684.66;4973432;28;20244;-85
2023/12/31 05:58:15;;;;;;;1.77;0.73;;;;;;;6.78;100.00;99684.97;4983053;28;20242;-85
2023/12/31 06:00:42;;;;;;;1.80;0.63;;;;;;;6.81;100.00;99687.38;4980962;28;20212;-84
2023/12/31 06:03:10;;;;;;;1.17;0.77;;;;;;;6.81;100.00;99679.44;4970096;28;20212;-85
2023/12/31 06:05:36;;;;;;;1.67;0.93;;;;;;;6.84;99.82;99675.75;4974075;28;20214;-85
2023/12/31 06:08:05;;;;;;;2.40;1.10;;;;;;;6.81;99.84;99670.66;4978337;28;20224;-84
2023/12/31 06:10:31;;;;;;;1.87;0.90;;;;;;;6.82;99.65;99665.28;4974251;28;20216;-84
2023/12/31 06:12:58;;;;;;;2.30;0.97;;;;;;;6.81;99.37;99663.56;4980876;28;20212;-84
2023/12/31 06:15:26;;;;;;;2.20;0.90;;;;;;;6.78;99.75;99660.28;4978566;28;20708;-84
2023/12/31 06:17:53;;;;;;;1.63;1.10;;;;;;;6.78;99.76;99663.78;4977790;28;20231;-84
2023/12/31 06:20:22;;;;;;;1.80;1.10;;;;;;;6.75;100.00;99665.78;4971115;28;20212;-84
2023/12/31 06:22:48;;;;;;;2.50;1.10;;;;;;;6.75;100.00;99660.47;4966559;28;20214;-85
2023/12/31 06:25:18;;;;;;;0.87;0.80;;;;;;;6.75;99.46;99666.63;4976405;28;20235;-85
2023/12/31 06:27:44;;;;;;;1.60;1.10;;;;;;;6.76;99.81;99670.13;4969530;28;20260;-84
2023/12/31 06:30:11;;;;;;;3.90;0.87;;;;;;;6.75;99.72;99658.69;4971198;28;20212;-83
2023/12/31 06:32:38;;;;;;;1.23;0.80;;;;;;;6.79;99.45;99656.69;4968172;28;20247;-83
2023/12/31 06:35:05;;;;;;;1.93;1.40;;;;;;;6.82;99.02;99654.69;4967350;28;20224;-84
2023/12/31 06:37:36;;;;;;;2.47;0.83;;;;;;;6.83;98.50;99650.25;4970296;28;20220;-85
2023/12/31 06:40:04;;;;;;;4.00;1.27;;;;;;;6.83;98.07;99652.88;4974312;28;20224;-85
2023/12/31 06:42:36;;;;;;;1.70;1.00;;;;;;;6.84;98.32;99638.72;4970601;28;20267;-83
2023/12/31 06:45:03;;;;;;;1.83;1.00;;;;;;;6.83;97.85;99643.16;4974899;28;20644;-85
2023/12/31 06:47:31;;;;;;;2.27;1.00;;;;;;;6.86;97.98;99650.91;4966669;28;20207;-84
2023/12/31 06:50:00;;;;;;;1.70;0.90;;;;;;;6.86;97.52;99647.41;4970179;28;20235;-84
2023/12/31 06:52:29;;;;;;;1.80;1.00;;;;;;;6.87;97.38;99625.28;4970553;28;20223;-84
2023/12/31 06:54:55;;;;;;;1.50;0.93;;;;;;;6.90;96.97;99623.31;4971700;28;20239;-84
2023/12/31 06:57:26;;;;;;;3.13;1.23;;;;;;;6.91;97.05;99614.41;4970995;28;20313;-84
2023/12/31 06:59:54;;;;;;;2.07;1.30;;;;;;;6.90;96.91;99604.78;4968862;28;20215;-84
2023/12/31 07:02:20;;;;;;;2.03;1.00;;;;;;;6.92;96.87;99605.53;4970386;28;20212;-84
2023/12/31 07:04:47;;;;;;;1.27;0.90;;;;;;;6.93;96.57;99603.72;4973668;28;20295;-84
2023/12/31 07:07:13;;;;;;;1.50;1.10;;;;;;;6.94;96.69;99600.13;4968608;28;20212;-84
2023/12/31 07:09:43;;;;;;;2.20;1.10;;;;;;;6.96;96.14;99592.94;4969441;28;20215;-84
2023/12/31 07:12:11;;;;;;;1.40;1.00;;;;;;;6.95;95.96;99607.13;4968631;28;20208;-85
2023/12/31 07:14:39;;;;;;;1.40;0.77;;;;;;;6.97;95.71;99592.84;4969800;28;20705;-84
2023/12/31 07:17:10;;;;;;;1.17;0.80;;;;;;;6.97;95.56;99603.44;4970679;28;20200;-84
2023/12/31 07:19:36;;;;;;;2.23;1.00;;;;;;;7.00;95.72;99596.22;4971240;28;20224;-84
2023/12/31 07:22:04;;;;;;;2.63;1.13;;;;;;;7.04;94.64;99600.38;4974461;28;20741;-84
2023/12/31 07:24:32;;;;;;;3.00;1.17;;;;;;;7.04;94.35;99597.72;4975366;28;20637;-84
2023/12/31 07:26:59;;;;;;;2.23;1.07;;;;;;;7.05;94.18;99600.28;4975212;28;20291;-84
2023/12/31 07:29:26;;;;;;;0.97;0.87;;;;;;;7.06;94.50;99591.38;4977967;28;20260;-85
2023/12/31 07:31:59;;;;;;;0.97;0.80;;;;;;;7.06;93.85;99577.28;4977283;28;20214;-85
2023/12/31 07:34:33;;;;;;;1.80;1.00;;;;;;;7.05;93.66;99580.88;4977252;28;20236;-85
2023/12/31 07:37:02;;;;;;;2.40;1.60;;;;;;;7.03;93.30;99577.50;4972732;28;20201;-84
2023/12/31 07:39:29;;;;;;;1.97;1.10;;;;;;;7.05;92.76;99579.09;4980385;28;20227;-84
2023/12/31 07:41:55;;;;;;;2.40;1.07;;;;;;;7.09;92.60;99574.44;4979490;28;20287;-85
2023/12/31 07:44:22;;;;;;;1.90;1.10;;;;;;;7.09;92.67;99577.94;4981246;28;20242;-86
2023/12/31 07:46:50;;;;;;;1.93;1.00;;;;;;;7.08;92.72;99567.47;4970729;28;20213;-85
2023/12/31 07:49:17;;;;;;;2.50;1.20;;;;;;;7.07;92.31;99576.34;4973290;28;20227;-85
2023/12/31 07:51:45;;;;;;;2.00;1.13;;;;;;;7.07;92.59;99571.91;4979187;28;20208;-84
2023/12/31 07:54:15;;;;;;;1.30;0.90;;;;;;;7.10;92.20;99577.00;4976559;28;20228;-84
2023/12/31 07:56:42;;;;;;;3.13;1.10;;;;;;;7.13;92.14;99573.31;4970895;28;21147;-85
2023/12/31 07:59:11;;;;;;;2.07;1.00;;;;;;;7.13;92.14;99560.91;4979800;28;20274;-84
2023/12/31 08:01:38;;;;;;;2.77;1.40;;;;;;;7.16;91.71;99565.16;4975132;28;20212;-85
2023/12/31 08:04:05;;;;;;;1.77;1.40;;;;;;;7.15;91.20;99564.31;4969905;28;20517;-85
2023/12/31 08:06:33;;;;;;;2.17;1.30;;;;;;;7.16;91.32;99557.22;4976476;28;20228;-85
2023/12/31 08:09:01;;;;;;;3.10;1.10;;;;;;;7.17;91.19;99551.78;4973360;28;20295;-85
2023/12/31 08:11:29;;;;;;;1.60;1.00;;;;;;;7.19;91.35;99552.53;4972836;28;20196;-86
2023/12/31 08:13:55;;;;;;;2.13;0.97;;;;;;;7.21;91.71;99561.25;4976955;28;20220;-85
2023/12/31 08:16:22;;;;;;;1.37;1.20;;;;;;;7.25;90.99;99556.59;4973514;28;20209;-84
2023/12/31 08:18:49;;;;;;;2.83;1.10;;;;;;;7.23;90.63;99546.09;4971729;28;20595;-84
2023/12/31 08:21:17;;;;;;;2.90;1.00;;;;;;;7.24;90.87;99542.50;4973527;28;20212;-84
2023/12/31 08:23:44;;;;;;;1.17;0.90;;;;;;;7.27;90.73;99546.75;4979573;28;20227;-85
2023/12/31 08:26:13;;;;;;;2.37;0.90;;;;;;;7.30;90.21;99536.81;4975666;28;20203;-85
2023/12/31 08:28:39;;;;;;;1.63;0.90;;;;;;;7.35;89.62;99525.88;4973577;28;20240;-85
2023/12/31 08:31:15;;;;;;;1.57;1.13;;;;;;;7.37;89.87;99528.41;4970639;28;20682;-85
2023/12/31 08:33:45;;;;;;;1.90;1.30;;;;;;;7.40;88.95;99528.22;4972017;28;20196;-84
2023/12/31 08:36:14;;;;;;;1.83;1.07;;;;;;;7.41;89.77;99519.31;4974636;28;21422;-84
2023/12/31 08:38:44;;;;;;;1.30;0.90;;;;;;;7.43;89.34;99518.25;4972593;28;20264;-85
2023/12/31 08:41:11;;;;;;;1.63;0.80;;;;;;;7.45;88.63;99508.41;4973845;28;20216;-85
2023/12/31 08:43:40;;;;;;;3.10;1.20;;;;;;;7.47;89.17;99508.31;4978630;28;20195;-85
2023/12/31 08:46:08;;;;;;;3.43;1.40;;;;;;;7.45;89.26;99496.97;4973141;28;20842;-85
2023/12/31 08:48:37;;;;;;;3.43;1.17;;;;;;;7.50;87.84;99506.31;4979519;28;20208;-85
2023/12/31 08:51:06;;;;;;;1.83;1.10;;;;;;;7.53;87.54;99498.13;4972457;28;20196;-85
2023/12/31 08:53:32;;;;;;;1.67;1.13;;;;;;;7.49;87.92;99504.59;4969223;28;20209;-85
2023/12/31 08:55:59;;;;;;;1.20;1.10;;;;;;;7.49;87.84;99501.97;4972380;28;20228;-85
2023/12/31 08:58:27;;;;;;;1.53;1.30;;;;;;;7.52;87.50;99493.81;4970630;28;20208;-84
2023/12/31 09:00:53;;;;;;;1.60;1.20;;;;;;;7.52;88.15;99498.25;4977301;28;20200;-85
2023/12/31 09:03:20;;;;;;;1.30;0.97;;;;;;;7.54;87.48;99498.97;4971028;28;20216;-84
2023/12/31 09:05:49;;;;;;;2.63;1.27;;;;;;;7.55;87.12;99492.72;4973898;28;20259;-86
2023/12/31 09:08:18;;;;;;;2.10;1.20;;;;;;;7.55;87.00;99480.31;4967126;28;20270;-84
2023/12/31 09:10:53;;;;;;;1.10;0.90;;;;;;;7.57;86.37;99491.66;4967109;28;20209;-85
2023/12/31 09:13:27;;;;;;;2.53;1.20;;;;;;;7.60;85.68;99472.91;4971239;28;20250;-84
2023/12/31 09:16:00;;;;;;;3.23;1.40;;;;;;;7.63;85.16;99490.41;4967707;28;20228;-85
2023/12/31 09:21:12;;;;;;;2.30;1.30;;;;;;;7.63;84.85;99475.34;4925541;28;20217;-84
2023/12/31 09:23:39;;;;;;;2.23;1.10;;;;;;;7.66;85.15;99467.19;4972097;28;20212;-85
2023/12/31 09:26:07;;;;;;;1.87;1.10;;;;;;;7.64;85.54;99466.44;4970129;28;20279;-86
2023/12/31 09:28:36;;;;;;;1.87;1.10;;;;;;;7.69;84.73;99470.59;4977696;28;20200;-85
2023/12/31 09:31:06;;;;;;;1.67;1.23;;;;;;;7.69;84.74;99466.13;4978012;28;20295;-83
2023/12/31 09:33:32;;;;;;;2.50;1.70;;;;;;;7.70;84.40;99480.22;4970986;28;20204;-81
2023/12/31 09:35:59;;;;;;;1.80;1.20;;;;;;;7.71;84.71;99474.78;4968669;28;20319;-80
2023/12/31 09:38:25;;;;;;;1.80;1.30;;;;;;;7.74;84.68;99476.38;4975300;28;20668;-82
2023/12/31 09:40:53;;;;;;;3.30;1.80;;;;;;;7.81;84.30;99477.66;4964433;28;20602;-81
2023/12/31 09:43:22;;;;;;;1.67;1.30;;;;;;;7.81;83.92;99470.56;4974601;28;20275;-81
2023/12/31 09:45:53;;;;;;;1.50;1.10;;;;;;;7.84;83.41;99453.59;4972165;28;20224;-80
2023/12/31 09:48:21;;;;;;;1.63;1.20;;;;;;;7.85;83.68;99466.75;4977571;28;20216;-81
2023/12/31 09:50:50;;;;;;;2.43;1.27;;;;;;;7.87;83.88;99467.50;4976999;28;20211;-81
2023/12/31 09:53:18;;;;;;;1.93;1.33;;;;;;;7.90;83.07;99461.09;4970316;28;20212;-80
2023/12/31 09:55:45;;;;;;;2.10;1.20;;;;;;;7.94;83.21;99441.38;4974303;28;20224;-80
2023/12/31 09:58:12;;;;;;;3.07;1.80;;;;;;;7.94;82.36;99446.66;4969543;28;20219;-81
2023/12/31 10:00:39;;;;;;;2.23;1.60;;;;;;;7.96;82.51;99442.09;4979549;28;20247;-79
2023/12/31 10:03:07;;;;;;;3.23;1.80;;;;;;;8.00;82.56;99433.84;4975247;28;20216;-80
2023/12/31 10:05:38;;;;;;;2.07;1.43;;;;;;;8.02;81.81;99426.63;4971241;28;20232;-80
2023/12/31 10:08:08;;;;;;;1.93;1.23;;;;;;;8.05;81.21;99419.41;4972545;28;20215;-80
2023/12/31 10:10:38;;;;;;;2.33;1.53;;;;;;;8.07;81.46;99415.66;4968287;28;20619;-82
2023/12/31 10:13:04;;;;;;;1.97;1.30;;;;;;;8.08;80.79;99401.44;4972746;28;20204;-83
2023/12/31 10:15:31;;;;;;;2.17;1.43;;;;;;;8.14;81.38;99400.16;4970744;28;20707;-82
2023/12/31 10:18:02;;;;;;;1.93;1.20;;;;;;;8.17;81.32;99389.31;4970630;28;20208;-78
2023/12/31 10:20:30;;;;;;;1.93;1.10;;;;;;;8.18;80.26;99391.88;4968539;28;20232;-82
2023/12/31 10:22:58;;;;;;;2.07;1.50;;;;;;;8.20;80.81;99384.66;4970608;28;20256;-79
2023/12/31 10:25:25;;;;;;;1.77;1.30;;;;;;;8.24;79.93;99382.63;4972964;28;20228;-81
2023/12/31 10:27:51;;;;;;;1.50;1.40;;;;;;;8.25;80.23;99378.97;4975714;28;20204;-82
2023/12/31 10:30:18;;;;;;;3.03;2.50;;;;;;;8.25;80.62;99377.19;4973077;28;20212;-80
2023/12/31 10:32:44;;;;;;;4.97;2.43;;;;;;;8.25;80.21;99381.63;4972037;28;20210;-79
2023/12/31 10:35:11;;;;;;;1.43;1.33;;;;;;;8.26;80.02;99362.97;4971485;28;20260;-81
2023/12/31 10:37:37;;;;;;;3.37;1.40;;;;;;;8.29;80.56;99359.22;4972810;28;20210;-82
2023/12/31 10:40:19;;;;;;;2.50;1.43;;;;;;;8.31;79.91;99350.22;4972829;28;20688;-81
2023/12/31 10:42:48;;;;;;;1.87;1.57;;;;;;;8.33;81.24;99355.44;4966318;28;20212;-82
2023/12/31 10:45:18;;;;;;;2.10;1.63;;;;;;;8.35;80.29;99353.53;4969959;28;20294;-80
2023/12/31 10:47:47;;;;;;;1.57;1.30;;;;;;;8.35;80.99;99346.41;4972826;28;20240;-82
2023/12/31 10:50:17;;;;;;;2.40;1.53;;;;;;;8.37;80.38;99329.53;4969835;28;20200;-80
2023/12/31 10:52:45;;;;;;;2.60;1.87;;;;;;;8.36;81.27;99331.34;4974678;28;20212;-82
2023/12/31 10:55:13;;;;;;;2.80;1.67;;;;;;;8.36;81.78;99323.38;4968646;28;20291;-82
2023/12/31 10:57:43;;;;;;;2.83;1.47;;;;;;;8.38;80.76;99316.16;4971317;28;20212;-82
2023/12/31 11:00:11;;;;;;;3.90;1.70;;;;;;;8.39;81.50;99311.69;4980371;28;20235;-83
2023/12/31 11:02:38;;;;;;;2.50;1.60;;;;;;;8.38;80.98;99307.34;4984299;28;20239;-82
2023/12/31 11:05:08;;;;;;;2.70;2.40;;;;;;;8.41;80.92;99296.50;4978879;28;20228;-80
2023/12/31 11:07:35;;;;;;;3.40;1.80;;;;;;;8.42;80.34;99293.72;4979455;28;20645;-81
2023/12/31 11:10:03;;;;;;;2.30;1.50;;;;;;;8.43;80.45;99300.72;4973497;28;20991;-83
2023/12/31 11:12:30;;;;;;;2.27;1.50;;;;;;;8.43;80.86;99298.06;4977955;28;20231;-82
2023/12/31 11:15:04;;;;;;;2.30;1.60;;;;;;;8.50;80.87;99290.50;4975233;28;20227;-82
2023/12/31 11:17:51;;;;;;;3.27;2.47;;;;;;;8.53;80.67;99269.88;4975834;28;20215;-81
2023/12/31 11:20:53;;;;;;;2.47;1.70;;;;;;;8.57;80.24;99278.44;4973116;28;20228;-80
2023/12/31 11:23:29;;;;;;;4.13;1.83;;;;;;;8.61;80.33;99271.91;4968723;28;20211;-80
2023/12/31 11:25:57;;;;;;;2.53;1.83;;;;;;;8.64;80.60;99256.59;4972182;28;20227;-79
2023/12/31 11:28:26;;;;;;;3.00;2.00;;;;;;;8.65;80.50;99268.06;4974993;28;20204;-80
2023/12/31 11:30:57;;;;;;;2.50;1.57;;;;;;;8.67;80.06;99274.13;4972849;28;20212;-81
2023/12/31 11:33:27;;;;;;;2.33;1.63;;;;;;;8.70;79.69;99266.75;4967292;28;20661;-80
2023/12/31 11:35:54;;;;;;;2.30;1.70;;;;;;;8.73;79.35;99263.03;4974401;28;20239;-83
2023/12/31 11:38:21;;;;;;;2.60;2.10;;;;;;;8.74;79.80;99267.38;4971903;28;20219;-82
2023/12/31 11:40:49;;;;;;;2.77;2.00;;;;;;;8.76;79.91;99264.59;4966780;28;20267;-80
2023/12/31 11:43:19;;;;;;;2.63;1.53;;;;;;;8.80;79.43;99244.78;4971926;28;20211;-82